Hassler — WTEK — position and weather

sailwx.info

Track history (hours):
 
Tides and Currents Weather Stations Pressure Air Temp Water Temp Dewpoint Dewpoint Depression Visibility Wind Speed Wind Dir Waves Ship Positions

Oceanographic research ship Hassler (USA)

Last reported at 2015-Jan-28 19:34 UTC. Time now 2015-Jan-28 20:19 UTC.
Position N 43°04' W 070°43'.

Length 37 m; draft 3.8 m.

Type: . MMSI: 369970091.

Date/timePositionNaut miles runAvg speedWind from/ knotsBaromVisibWave heightAir tempDewpointWater temp
2015-Jan-28 19:34N 43°04' W 070°43'0 0.0
2015-Jan-28 18:34N 43°04' W 070°43'0 0.0
2015-Jan-28 17:34N 43°04' W 070°43'0 0.0
2015-Jan-28 16:33N 43°04' W 070°43'0 0.0
2015-Jan-28 15:34N 43°04' W 070°43'0 0.0
2015-Jan-28 14:33N 43°04' W 070°43'0 0.0
2015-Jan-28 13:33N 43°04' W 070°43'0 0.0
2015-Jan-28 12:33N 43°04' W 070°43'0 0.0
2015-Jan-28 11:33N 43°04' W 070°43'0 0.0
2015-Jan-28 10:34N 43°04' W 070°43'0 0.0
2015-Jan-28 09:33N 43°04' W 070°43'0 0.0
2015-Jan-28 08:33N 43°04' W 070°43'0 0.0
2015-Jan-28 07:33N 43°04' W 070°43'0 0.0
2015-Jan-28 06:33N 43°04' W 070°43'0 0.0
2015-Jan-28 05:33N 43°04' W 070°43'0 0.0
2015-Jan-28 04:33N 43°04' W 070°43'0 0.0
2015-Jan-28 03:33N 43°04' W 070°43'0 0.0
2015-Jan-28 02:33N 43°04' W 070°43'0 0.0
2015-Jan-28 01:33N 43°04' W 070°43'0 0.0
2015-Jan-28 00:33N 43°04' W 070°43'0 0.0
2015-Jan-27 23:33N 43°04' W 070°43'0 0.0
2015-Jan-27 22:33N 43°04' W 070°43'0 0.0
2015-Jan-27 21:33N 43°04' W 070°43'0 0.0
2015-Jan-27 20:33N 43°04' W 070°43'0 0.0
2015-Jan-27 19:33N 43°04' W 070°43'0 0.0
2015-Jan-27 18:33N 43°04' W 070°43'0 0.0
2015-Jan-27 17:33N 43°04' W 070°43'0 0.0
2015-Jan-27 16:33N 43°04' W 070°43'0 0.0
2015-Jan-27 15:33N 43°04' W 070°43'0 0.0
2015-Jan-27 14:33N 43°04' W 070°43'0 0.0
2015-Jan-27 13:33N 43°04' W 070°43'0 0.0
2015-Jan-27 12:33N 43°04' W 070°43'0 0.0
2015-Jan-27 11:33N 43°04' W 070°43'0 0.0
2015-Jan-27 10:33N 43°04' W 070°43'0 0.0
2015-Jan-27 09:33N 43°04' W 070°43'0 0.0
2015-Jan-27 08:33N 43°04' W 070°43'0 0.0
2015-Jan-27 07:33N 43°04' W 070°43'0 0.0
2015-Jan-27 06:33N 43°04' W 070°43'0 0.0
2015-Jan-27 05:33N 43°04' W 070°43'0 0.0
2015-Jan-27 04:33N 43°04' W 070°43'0 0.0
2015-Jan-27 03:33N 43°04' W 070°43'0 0.0
2015-Jan-27 02:33N 43°04' W 070°43'0 0.0
2015-Jan-27 01:33N 43°04' W 070°43'0 0.0
2015-Jan-27 00:33N 43°04' W 070°43'0 0.0
2015-Jan-26 23:33N 43°04' W 070°43'0 0.0
2015-Jan-26 22:33N 43°04' W 070°43'0 0.0
2015-Jan-26 21:33N 43°04' W 070°43'0 0.0
2015-Jan-26 20:33N 43°04' W 070°43'0 0.0
2015-Jan-26 19:33N 43°04' W 070°43'0 0.0
2015-Jan-26 18:33N 43°04' W 070°43'0 0.0
2015-Jan-26 17:33N 43°04' W 070°43'0 0.0
2015-Jan-26 16:33N 43°04' W 070°43'4 3.2
2015-Jan-26 15:27N 43°02' W 070°39'37 1.0
2015-Jan-25 03:31N 43°30' W 070°04'1 0.5
2015-Jan-25 02:25N 43°30' W 070°05'2 1.9
2015-Jan-25 01:33N 43°31' W 070°04'0 0.3
2015-Jan-25 00:33N 43°32' W 070°04'1 0.2
2015-Jan-24 21:33N 43°31' W 070°05'1 0.2
2015-Jan-24 18:34N 43°31' W 070°06'0 0.1
2015-Jan-24 17:10N 43°31' W 070°06'2 1.1
2015-Jan-24 15:32N 43°29' W 070°06'2 0.5
2015-Jan-24 11:28N 43°31' W 070°08'1 0.8
2015-Jan-24 10:13N 43°32' W 070°07'0 0.1
2015-Jan-24 09:31N 43°32' W 070°07'38 2.7
2015-Jan-23 19:31N 43°02' W 070°40'3 2.6
2015-Jan-23 18:32N 43°04' W 070°43'0 0.0
2015-Jan-23 17:32N 43°04' W 070°43'0 0.0
2015-Jan-23 16:32N 43°04' W 070°43'0 0.0
2015-Jan-23 15:32N 43°04' W 070°43'0 0.0
2015-Jan-23 14:32N 43°04' W 070°43'0 0.0
2015-Jan-23 13:32N 43°04' W 070°43'0 0.0
2015-Jan-23 12:32N 43°04' W 070°43'0 0.0
2015-Jan-23 11:32N 43°04' W 070°43'0 0.0
2015-Jan-23 10:32N 43°04' W 070°43'0 0.0
2015-Jan-23 09:32N 43°04' W 070°43'0 0.0
2015-Jan-23 08:32N 43°04' W 070°43'0 0.0
2015-Jan-23 07:32N 43°04' W 070°43'0 0.0
2015-Jan-23 06:32N 43°04' W 070°43'0 0.0
2015-Jan-23 05:29N 43°04' W 070°43'0 0.0
2015-Jan-23 04:32N 43°04' W 070°43'0 0.0
2015-Jan-23 03:29N 43°04' W 070°43'0 0.0
2015-Jan-23 02:32N 43°04' W 070°43'0 0.0
2015-Jan-23 01:23N 43°04' W 070°43'0 0.0
2015-Jan-23 00:32N 43°04' W 070°43'0 0.0
2015-Jan-22 23:32N 43°04' W 070°43'0 0.0
2015-Jan-22 22:32N 43°04' W 070°43'0 0.0
2015-Jan-22 21:32N 43°04' W 070°43'0 0.0
2015-Jan-22 20:32N 43°04' W 070°43'0 0.0
2015-Jan-22 19:32N 43°04' W 070°43'0 0.0
2015-Jan-22 18:32N 43°04' W 070°43'0 0.0
2015-Jan-22 17:32N 43°04' W 070°43'0 0.0
2015-Jan-22 16:32N 43°04' W 070°43'0 0.0
2015-Jan-22 15:32N 43°04' W 070°43'0 0.0
2015-Jan-22 14:33N 43°04' W 070°43'0 0.0
2015-Jan-22 13:32N 43°04' W 070°43'0 0.0
2015-Jan-22 12:32N 43°04' W 070°43'0 0.0
2015-Jan-22 11:32N 43°04' W 070°43'0 0.0
2015-Jan-22 10:32N 43°04' W 070°43'0 0.0
2015-Jan-22 09:32N 43°04' W 070°43'0 0.0
2015-Jan-22 08:32N 43°04' W 070°43'0 0.0
2015-Jan-22 07:32N 43°04' W 070°43'0 0.0
2015-Jan-22 06:32N 43°04' W 070°43'0 0.0
2015-Jan-22 05:32N 43°04' W 070°43'0 0.0
2015-Jan-22 04:32N 43°04' W 070°43'0 0.0
2015-Jan-22 03:32N 43°04' W 070°43'0 0.0
2015-Jan-22 02:33N 43°04' W 070°43'0 0.0
2015-Jan-22 01:32N 43°04' W 070°43'0 0.0
2015-Jan-22 00:32N 43°04' W 070°43'0 0.0
2015-Jan-21 23:32N 43°04' W 070°43'0 0.0
2015-Jan-21 22:50N 43°04' W 070°43'0 0.0
2015-Jan-21 22:44N 43°04' W 070°43'0 0.0
2015-Jan-21 22:32N 43°04' W 070°43'0 0.0
2015-Jan-21 21:32N 43°04' W 070°43'0 0.0
2015-Jan-21 20:32N 43°04' W 070°43'0 0.0
2015-Jan-21 19:32N 43°04' W 070°43'0 0.0
2015-Jan-21 18:32N 43°04' W 070°43'0 0.0
2015-Jan-21 17:32N 43°04' W 070°43'0 0.0
2015-Jan-21 16:32N 43°04' W 070°43'0 0.0
2015-Jan-21 15:32N 43°04' W 070°43'0 0.0
2015-Jan-21 14:32N 43°04' W 070°43'0 0.0
2015-Jan-21 13:32N 43°04' W 070°43'0 0.0
2015-Jan-21 12:32N 43°04' W 070°43'0 0.0
2015-Jan-21 11:32N 43°04' W 070°43'0 0.0
2015-Jan-21 10:29N 43°04' W 070°43'0 0.0
2015-Jan-21 09:32N 43°04' W 070°43'0 0.0
2015-Jan-21 08:32N 43°04' W 070°43'0 0.0
2015-Jan-21 07:32N 43°04' W 070°43'0 0.0
2015-Jan-21 06:32N 43°04' W 070°43'0 0.0
2015-Jan-21 05:32N 43°04' W 070°43'0 0.0
2015-Jan-21 04:32N 43°04' W 070°43'0 0.0
2015-Jan-21 03:32N 43°04' W 070°43'0 0.0
2015-Jan-21 02:32N 43°04' W 070°43'0 0.0
2015-Jan-21 01:32N 43°04' W 070°43'0 0.0
2015-Jan-21 00:32N 43°04' W 070°43'0 0.0
2015-Jan-20 23:32N 43°04' W 070°43'0 0.0
2015-Jan-20 22:32N 43°04' W 070°43'0 0.0
2015-Jan-20 21:32N 43°04' W 070°43'0 0.0
2015-Jan-20 20:32N 43°04' W 070°43'0 0.0
2015-Jan-20 19:32N 43°04' W 070°43'0 0.0
2015-Jan-20 18:32N 43°04' W 070°43'0 0.0
2015-Jan-20 17:32N 43°04' W 070°43'0 0.0
2015-Jan-20 16:32N 43°04' W 070°43'0 0.0
2015-Jan-20 15:32N 43°04' W 070°43'0 0.0
2015-Jan-20 14:32N 43°04' W 070°43'0 0.0
2015-Jan-20 13:32N 43°04' W 070°43'0 0.0
2015-Jan-20 12:32N 43°04' W 070°43'0 0.0
2015-Jan-20 11:32N 43°04' W 070°43'0 0.0
2015-Jan-20 10:32N 43°04' W 070°43'0 0.0
2015-Jan-20 09:32N 43°04' W 070°43'0 0.0
2015-Jan-20 08:32N 43°04' W 070°43'0 0.0
2015-Jan-20 07:32N 43°04' W 070°43'0 0.0
2015-Jan-20 06:32N 43°04' W 070°43'0 0.0
2015-Jan-20 05:32N 43°04' W 070°43'0 0.0
2015-Jan-20 04:26N 43°04' W 070°43'0 0.0
2015-Jan-20 03:27N 43°04' W 070°43'0 0.0
2015-Jan-20 02:18N 43°04' W 070°43'0 0.0
2015-Jan-20 01:27N 43°04' W 070°43'0 0.0
2015-Jan-20 00:32N 43°04' W 070°43'0 0.0
2015-Jan-19 23:32N 43°04' W 070°43'0 0.0
2015-Jan-19 22:32N 43°04' W 070°43'0 0.0
2015-Jan-19 21:32N 43°04' W 070°43'0 0.0
2015-Jan-19 20:32N 43°04' W 070°43'0 0.0
2015-Jan-19 19:32N 43°04' W 070°43'0 0.0
2015-Jan-19 18:32N 43°04' W 070°43'0 0.0
2015-Jan-19 17:32N 43°04' W 070°43'0 0.0
2015-Jan-19 16:32N 43°04' W 070°43'0 0.0
2015-Jan-19 15:32N 43°04' W 070°43'0 0.0
2015-Jan-19 14:32N 43°04' W 070°43'0 0.0
2015-Jan-19 13:32N 43°04' W 070°43'0 0.0
2015-Jan-19 12:32N 43°04' W 070°43'0 0.0
2015-Jan-19 11:32N 43°04' W 070°43'0 0.0
2015-Jan-19 10:32N 43°04' W 070°43'0 0.0
2015-Jan-19 09:32N 43°04' W 070°43'0 0.0
2015-Jan-19 08:32N 43°04' W 070°43'0 0.0
2015-Jan-19 07:32N 43°04' W 070°43'0 0.0
2015-Jan-19 06:32N 43°04' W 070°43'0 0.0
2015-Jan-19 05:32N 43°04' W 070°43'0 0.0
2015-Jan-19 04:32N 43°04' W 070°43'0 0.0
2015-Jan-19 03:32N 43°04' W 070°43'0 0.0
2015-Jan-19 02:32N 43°04' W 070°43'0 0.0
2015-Jan-19 01:32N 43°04' W 070°43'0 0.0
2015-Jan-19 00:32N 43°04' W 070°43'0 0.0
2015-Jan-18 23:32N 43°04' W 070°43'0 0.0
2015-Jan-18 22:32N 43°04' W 070°43'0 0.0
2015-Jan-18 21:32N 43°04' W 070°43'0 0.0
2015-Jan-18 20:32N 43°04' W 070°43'  
Track history (hours):
 
Tides and Currents Weather Stations Pressure Air Temp Water Temp Dewpoint Dewpoint Depression Visibility Wind Speed Wind Dir Waves Ship Positions

Oceanographic research ship Hassler (USA)

Last reported at 2015-Jan-28 19:34 UTC. Time now 2015-Jan-28 20:19 UTC.
Position N 43°04' W 070°43'.

Length 37 m; draft 3.8 m.

Type: . MMSI: 369970091.

Date/timePositionNaut miles runAvg speedWind from/ knotsBaromVisibWave heightAir tempDewpointWater temp
2015-Jan-28 19:34N 43°04' W 070°43'0 0.0
2015-Jan-28 18:34N 43°04' W 070°43'0 0.0
2015-Jan-28 17:34N 43°04' W 070°43'0 0.0
2015-Jan-28 16:33N 43°04' W 070°43'0 0.0
2015-Jan-28 15:34N 43°04' W 070°43'0 0.0
2015-Jan-28 14:33N 43°04' W 070°43'0 0.0
2015-Jan-28 13:33N 43°04' W 070°43'0 0.0
2015-Jan-28 12:33N 43°04' W 070°43'0 0.0
2015-Jan-28 11:33N 43°04' W 070°43'0 0.0
2015-Jan-28 10:34N 43°04' W 070°43'0 0.0
2015-Jan-28 09:33N 43°04' W 070°43'0 0.0
2015-Jan-28 08:33N 43°04' W 070°43'0 0.0
2015-Jan-28 07:33N 43°04' W 070°43'0 0.0
2015-Jan-28 06:33N 43°04' W 070°43'0 0.0
2015-Jan-28 05:33N 43°04' W 070°43'0 0.0
2015-Jan-28 04:33N 43°04' W 070°43'0 0.0
2015-Jan-28 03:33N 43°04' W 070°43'0 0.0
2015-Jan-28 02:33N 43°04' W 070°43'0 0.0
2015-Jan-28 01:33N 43°04' W 070°43'0 0.0
2015-Jan-28 00:33N 43°04' W 070°43'0 0.0
2015-Jan-27 23:33N 43°04' W 070°43'0 0.0
2015-Jan-27 22:33N 43°04' W 070°43'0 0.0
2015-Jan-27 21:33N 43°04' W 070°43'0 0.0
2015-Jan-27 20:33N 43°04' W 070°43'0 0.0
2015-Jan-27 19:33N 43°04' W 070°43'0 0.0
2015-Jan-27 18:33N 43°04' W 070°43'0 0.0
2015-Jan-27 17:33N 43°04' W 070°43'0 0.0
2015-Jan-27 16:33N 43°04' W 070°43'0 0.0
2015-Jan-27 15:33N 43°04' W 070°43'0 0.0
2015-Jan-27 14:33N 43°04' W 070°43'0 0.0
2015-Jan-27 13:33N 43°04' W 070°43'0 0.0
2015-Jan-27 12:33N 43°04' W 070°43'0 0.0
2015-Jan-27 11:33N 43°04' W 070°43'0 0.0
2015-Jan-27 10:33N 43°04' W 070°43'0 0.0
2015-Jan-27 09:33N 43°04' W 070°43'0 0.0
2015-Jan-27 08:33N 43°04' W 070°43'0 0.0
2015-Jan-27 07:33N 43°04' W 070°43'0 0.0
2015-Jan-27 06:33N 43°04' W 070°43'0 0.0
2015-Jan-27 05:33N 43°04' W 070°43'0 0.0
2015-Jan-27 04:33N 43°04' W 070°43'0 0.0
2015-Jan-27 03:33N 43°04' W 070°43'0 0.0
2015-Jan-27 02:33N 43°04' W 070°43'0 0.0
2015-Jan-27 01:33N 43°04' W 070°43'0 0.0
2015-Jan-27 00:33N 43°04' W 070°43'0 0.0
2015-Jan-26 23:33N 43°04' W 070°43'0 0.0
2015-Jan-26 22:33N 43°04' W 070°43'0 0.0
2015-Jan-26 21:33N 43°04' W 070°43'0 0.0
2015-Jan-26 20:33N 43°04' W 070°43'0 0.0
2015-Jan-26 19:33N 43°04' W 070°43'0 0.0
2015-Jan-26 18:33N 43°04' W 070°43'0 0.0
2015-Jan-26 17:33N 43°04' W 070°43'0 0.0
2015-Jan-26 16:33N 43°04' W 070°43'4 3.2
2015-Jan-26 15:27N 43°02' W 070°39'37 1.0
2015-Jan-25 03:31N 43°30' W 070°04'1 0.5
2015-Jan-25 02:25N 43°30' W 070°05'2 1.9
2015-Jan-25 01:33N 43°31' W 070°04'0 0.3
2015-Jan-25 00:33N 43°32' W 070°04'1 0.2
2015-Jan-24 21:33N 43°31' W 070°05'1 0.2
2015-Jan-24 18:34N 43°31' W 070°06'0 0.1
2015-Jan-24 17:10N 43°31' W 070°06'2 1.1
2015-Jan-24 15:32N 43°29' W 070°06'2 0.5
2015-Jan-24 11:28N 43°31' W 070°08'1 0.8
2015-Jan-24 10:13N 43°32' W 070°07'0 0.1
2015-Jan-24 09:31N 43°32' W 070°07'38 2.7
2015-Jan-23 19:31N 43°02' W 070°40'3 2.6
2015-Jan-23 18:32N 43°04' W 070°43'0 0.0
2015-Jan-23 17:32N 43°04' W 070°43'0 0.0
2015-Jan-23 16:32N 43°04' W 070°43'0 0.0
2015-Jan-23 15:32N 43°04' W 070°43'0 0.0
2015-Jan-23 14:32N 43°04' W 070°43'0 0.0
2015-Jan-23 13:32N 43°04' W 070°43'0 0.0
2015-Jan-23 12:32N 43°04' W 070°43'0 0.0
2015-Jan-23 11:32N 43°04' W 070°43'0 0.0
2015-Jan-23 10:32N 43°04' W 070°43'0 0.0
2015-Jan-23 09:32N 43°04' W 070°43'0 0.0
2015-Jan-23 08:32N 43°04' W 070°43'0 0.0
2015-Jan-23 07:32N 43°04' W 070°43'0 0.0
2015-Jan-23 06:32N 43°04' W 070°43'0 0.0
2015-Jan-23 05:29N 43°04' W 070°43'0 0.0
2015-Jan-23 04:32N 43°04' W 070°43'0 0.0
2015-Jan-23 03:29N 43°04' W 070°43'0 0.0
2015-Jan-23 02:32N 43°04' W 070°43'0 0.0
2015-Jan-23 01:23N 43°04' W 070°43'0 0.0
2015-Jan-23 00:32N 43°04' W 070°43'0 0.0
2015-Jan-22 23:32N 43°04' W 070°43'0 0.0
2015-Jan-22 22:32N 43°04' W 070°43'0 0.0
2015-Jan-22 21:32N 43°04' W 070°43'0 0.0
2015-Jan-22 20:32N 43°04' W 070°43'0 0.0
2015-Jan-22 19:32N 43°04' W 070°43'0 0.0
2015-Jan-22 18:32N 43°04' W 070°43'0 0.0
2015-Jan-22 17:32N 43°04' W 070°43'0 0.0
2015-Jan-22 16:32N 43°04' W 070°43'0 0.0
2015-Jan-22 15:32N 43°04' W 070°43'0 0.0
2015-Jan-22 14:33N 43°04' W 070°43'0 0.0
2015-Jan-22 13:32N 43°04' W 070°43'0 0.0
2015-Jan-22 12:32N 43°04' W 070°43'0 0.0
2015-Jan-22 11:32N 43°04' W 070°43'0 0.0
2015-Jan-22 10:32N 43°04' W 070°43'0 0.0
2015-Jan-22 09:32N 43°04' W 070°43'0 0.0
2015-Jan-22 08:32N 43°04' W 070°43'0 0.0
2015-Jan-22 07:32N 43°04' W 070°43'0 0.0
2015-Jan-22 06:32N 43°04' W 070°43'0 0.0
2015-Jan-22 05:32N 43°04' W 070°43'0 0.0
2015-Jan-22 04:32N 43°04' W 070°43'0 0.0
2015-Jan-22 03:32N 43°04' W 070°43'0 0.0
2015-Jan-22 02:33N 43°04' W 070°43'0 0.0
2015-Jan-22 01:32N 43°04' W 070°43'0 0.0
2015-Jan-22 00:32N 43°04' W 070°43'0 0.0
2015-Jan-21 23:32N 43°04' W 070°43'0 0.0
2015-Jan-21 22:50N 43°04' W 070°43'0 0.0
2015-Jan-21 22:44N 43°04' W 070°43'0 0.0
2015-Jan-21 22:32N 43°04' W 070°43'0 0.0
2015-Jan-21 21:32N 43°04' W 070°43'0 0.0
2015-Jan-21 20:32N 43°04' W 070°43'0 0.0
2015-Jan-21 19:32N 43°04' W 070°43'0 0.0
2015-Jan-21 18:32N 43°04' W 070°43'0 0.0
2015-Jan-21 17:32N 43°04' W 070°43'0 0.0
2015-Jan-21 16:32N 43°04' W 070°43'0 0.0
2015-Jan-21 15:32N 43°04' W 070°43'0 0.0
2015-Jan-21 14:32N 43°04' W 070°43'0 0.0
2015-Jan-21 13:32N 43°04' W 070°43'0 0.0
2015-Jan-21 12:32N 43°04' W 070°43'0 0.0
2015-Jan-21 11:32N 43°04' W 070°43'0 0.0
2015-Jan-21 10:29N 43°04' W 070°43'0 0.0
2015-Jan-21 09:32N 43°04' W 070°43'0 0.0
2015-Jan-21 08:32N 43°04' W 070°43'0 0.0
2015-Jan-21 07:32N 43°04' W 070°43'0 0.0
2015-Jan-21 06:32N 43°04' W 070°43'0 0.0
2015-Jan-21 05:32N 43°04' W 070°43'0 0.0
2015-Jan-21 04:32N 43°04' W 070°43'0 0.0
2015-Jan-21 03:32N 43°04' W 070°43'0 0.0
2015-Jan-21 02:32N 43°04' W 070°43'0 0.0
2015-Jan-21 01:32N 43°04' W 070°43'0 0.0
2015-Jan-21 00:32N 43°04' W 070°43'0 0.0
2015-Jan-20 23:32N 43°04' W 070°43'0 0.0
2015-Jan-20 22:32N 43°04' W 070°43'0 0.0
2015-Jan-20 21:32N 43°04' W 070°43'0 0.0
2015-Jan-20 20:32N 43°04' W 070°43'0 0.0
2015-Jan-20 19:32N 43°04' W 070°43'0 0.0
2015-Jan-20 18:32N 43°04' W 070°43'0 0.0
2015-Jan-20 17:32N 43°04' W 070°43'0 0.0
2015-Jan-20 16:32N 43°04' W 070°43'0 0.0
2015-Jan-20 15:32N 43°04' W 070°43'0 0.0
2015-Jan-20 14:32N 43°04' W 070°43'0 0.0
2015-Jan-20 13:32N 43°04' W 070°43'0 0.0
2015-Jan-20 12:32N 43°04' W 070°43'0 0.0
2015-Jan-20 11:32N 43°04' W 070°43'0 0.0
2015-Jan-20 10:32N 43°04' W 070°43'0 0.0
2015-Jan-20 09:32N 43°04' W 070°43'0 0.0
2015-Jan-20 08:32N 43°04' W 070°43'0 0.0
2015-Jan-20 07:32N 43°04' W 070°43'0 0.0
2015-Jan-20 06:32N 43°04' W 070°43'0 0.0
2015-Jan-20 05:32N 43°04' W 070°43'0 0.0
2015-Jan-20 04:26N 43°04' W 070°43'0 0.0
2015-Jan-20 03:27N 43°04' W 070°43'0 0.0
2015-Jan-20 02:18N 43°04' W 070°43'0 0.0
2015-Jan-20 01:27N 43°04' W 070°43'0 0.0
2015-Jan-20 00:32N 43°04' W 070°43'0 0.0
2015-Jan-19 23:32N 43°04' W 070°43'0 0.0
2015-Jan-19 22:32N 43°04' W 070°43'0 0.0
2015-Jan-19 21:32N 43°04' W 070°43'0 0.0
2015-Jan-19 20:32N 43°04' W 070°43'0 0.0
2015-Jan-19 19:32N 43°04' W 070°43'0 0.0
2015-Jan-19 18:32N 43°04' W 070°43'0 0.0
2015-Jan-19 17:32N 43°04' W 070°43'0 0.0
2015-Jan-19 16:32N 43°04' W 070°43'0 0.0
2015-Jan-19 15:32N 43°04' W 070°43'0 0.0
2015-Jan-19 14:32N 43°04' W 070°43'0 0.0
2015-Jan-19 13:32N 43°04' W 070°43'0 0.0
2015-Jan-19 12:32N 43°04' W 070°43'0 0.0
2015-Jan-19 11:32N 43°04' W 070°43'0 0.0
2015-Jan-19 10:32N 43°04' W 070°43'0 0.0
2015-Jan-19 09:32N 43°04' W 070°43'0 0.0
2015-Jan-19 08:32N 43°04' W 070°43'0 0.0
2015-Jan-19 07:32N 43°04' W 070°43'0 0.0
2015-Jan-19 06:32N 43°04' W 070°43'0 0.0
2015-Jan-19 05:32N 43°04' W 070°43'0 0.0
2015-Jan-19 04:32N 43°04' W 070°43'0 0.0
2015-Jan-19 03:32N 43°04' W 070°43'0 0.0
2015-Jan-19 02:32N 43°04' W 070°43'0 0.0
2015-Jan-19 01:32N 43°04' W 070°43'0 0.0
2015-Jan-19 00:32N 43°04' W 070°43'0 0.0
2015-Jan-18 23:32N 43°04' W 070°43'0 0.0
2015-Jan-18 22:32N 43°04' W 070°43'0 0.0
2015-Jan-18 21:32N 43°04' W 070°43'0 0.0
2015-Jan-18 20:32N 43°04' W 070°43'  

Dump ship's entire track history